sensor_id;sensor_type;location;lat;lon;timestamp;pressure;altitude;pressure_sealevel;temperature;humidity
4449;BME280;2237;51.870;6.160;2023-07-20T00:01:32;101247.78;;;20.55;100.00
4449;BME280;2237;51.870;6.160;2023-07-20T00:03:59;101245.75;;;20.60;100.00
4449;BME280;2237;51.870;6.160;2023-07-20T00:06:25;101249.84;;;20.50;100.00
4449;BME280;2237;51.870;6.160;2023-07-20T00:08:56;101251.41;;;20.54;100.00
4449;BME280;2237;51.870;6.160;2023-07-20T00:11:26;101247.63;;;20.58;100.00
4449;BME280;2237;51.870;6.160;2023-07-20T00:13:53;101253.88;;;20.57;100.00
4449;BME280;2237;51.870;6.160;2023-07-20T00:16:19;101250.38;;;20.57;100.00
4449;BME280;2237;51.870;6.160;2023-07-20T00:18:46;101236.44;;;20.53;100.00
4449;BME280;2237;51.870;6.160;2023-07-20T00:21:13;101250.63;;;20.37;100.00
4449;BME280;2237;51.870;6.160;2023-07-20T00:23:39;101253.56;;;20.15;100.00
4449;BME280;2237;51.870;6.160;2023-07-20T00:26:06;101246.78;;;20.11;100.00
4449;BME280;2237;51.870;6.160;2023-07-20T00:28:32;101253.31;;;20.04;100.00
4449;BME280;2237;51.870;6.160;2023-07-20T00:30:59;101251.66;;;19.86;100.00
4449;BME280;2237;51.870;6.160;2023-07-20T00:33:26;101248.69;;;19.92;100.00
4449;BME280;2237;51.870;6.160;2023-07-20T00:35:53;101241.88;;;19.88;100.00
4449;BME280;2237;51.870;6.160;2023-07-20T00:38:19;101245.97;;;19.93;100.00
4449;BME280;2237;51.870;6.160;2023-07-20T00:40:46;101243.84;;;20.00;100.00
4449;BME280;2237;51.870;6.160;2023-07-20T00:43:14;101246.13;;;20.06;100.00
4449;BME280;2237;51.870;6.160;2023-07-20T00:45:42;101238.03;;;20.09;100.00
4449;BME280;2237;51.870;6.160;2023-07-20T00:48:08;101251.44;;;20.06;100.00
4449;BME280;2237;51.870;6.160;2023-07-20T00:50:39;101242.69;;;20.05;100.00
4449;BME280;2237;51.870;6.160;2023-07-20T00:53:06;101253.47;;;20.01;100.00
4449;BME280;2237;51.870;6.160;2023-07-20T00:55:33;101248.53;;;19.95;100.00
4449;BME280;2237;51.870;6.160;2023-07-20T00:58:00;101246.53;;;19.83;100.00
4449;BME280;2237;51.870;6.160;2023-07-20T01:00:26;101241.94;;;19.70;100.00
4449;BME280;2237;51.870;6.160;2023-07-20T01:02:53;101241.31;;;19.65;100.00
4449;BME280;2237;51.870;6.160;2023-07-20T01:05:21;101247.44;;;19.66;100.00
4449;BME280;2237;51.870;6.160;2023-07-20T01:08:00;101242.75;;;19.71;100.00
4449;BME280;2237;51.870;6.160;2023-07-20T01:10:40;101244.09;;;19.47;100.00
4449;BME280;2237;51.870;6.160;2023-07-20T01:13:09;101254.16;;;19.39;100.00
4449;BME280;2237;51.870;6.160;2023-07-20T01:15:36;101262.03;;;19.40;100.00
4449;BME280;2237;51.870;6.160;2023-07-20T01:18:02;101268.72;;;19.47;100.00
4449;BME280;2237;51.870;6.160;2023-07-20T01:20:31;101257.56;;;19.58;100.00
4449;BME280;2237;51.870;6.160;2023-07-20T01:26:34;101265.66;;;19.55;100.00
4449;BME280;2237;51.870;6.160;2023-07-20T01:30:10;101268.78;;;19.46;100.00
4449;BME280;2237;51.870;6.160;2023-07-20T01:32:10;101269.03;;;19.41;100.00
4449;BME280;2237;51.870;6.160;2023-07-20T01:34:38;101266.69;;;19.35;100.00
4449;BME280;2237;51.870;6.160;2023-07-20T01:37:06;101270.84;;;19.22;100.00
4449;BME280;2237;51.870;6.160;2023-07-20T01:39:33;101266.28;;;19.08;100.00
4449;BME280;2237;51.870;6.160;2023-07-20T01:42:00;101268.22;;;19.05;100.00
4449;BME280;2237;51.870;6.160;2023-07-20T01:44:28;101273.59;;;19.21;100.00
4449;BME280;2237;51.870;6.160;2023-07-20T01:46:55;101268.75;;;19.29;100.00
4449;BME280;2237;51.870;6.160;2023-07-20T01:49:21;101262.94;;;19.39;100.00
4449;BME280;2237;51.870;6.160;2023-07-20T01:51:48;101265.13;;;19.48;100.00
4449;BME280;2237;51.870;6.160;2023-07-20T01:54:14;101263.25;;;19.50;100.00
4449;BME280;2237;51.870;6.160;2023-07-20T01:56:40;101262.63;;;19.45;100.00
4449;BME280;2237;51.870;6.160;2023-07-20T01:59:07;101260.38;;;19.55;100.00
4449;BME280;2237;51.870;6.160;2023-07-20T02:01:33;101260.22;;;19.58;100.00
4449;BME280;2237;51.870;6.160;2023-07-20T02:04:00;101254.41;;;19.51;100.00
4449;BME280;2237;51.870;6.160;2023-07-20T02:06:26;101266.06;;;19.47;100.00
4449;BME280;2237;51.870;6.160;2023-07-20T02:08:53;101269.81;;;19.43;100.00
4449;BME280;2237;51.870;6.160;2023-07-20T02:11:19;101269.97;;;19.40;100.00
4449;BME280;2237;51.870;6.160;2023-07-20T02:13:46;101266.53;;;19.38;100.00
4449;BME280;2237;51.870;6.160;2023-07-20T02:16:12;101272.72;;;19.37;100.00
4449;BME280;2237;51.870;6.160;2023-07-20T02:18:39;101268.59;;;19.32;100.00
4449;BME280;2237;51.870;6.160;2023-07-20T02:21:05;101263.38;;;19.30;100.00
4449;BME280;2237;51.870;6.160;2023-07-20T02:23:31;101280.09;;;19.31;100.00
4449;BME280;2237;51.870;6.160;2023-07-20T02:25:58;101275.06;;;19.26;100.00
4449;BME280;2237;51.870;6.160;2023-07-20T02:28:25;101271.97;;;19.18;100.00
4449;BME280;2237;51.870;6.160;2023-07-20T02:30:51;101267.59;;;19.00;100.00
4449;BME280;2237;51.870;6.160;2023-07-20T02:33:18;101274.25;;;18.90;100.00
4449;BME280;2237;51.870;6.160;2023-07-20T02:35:44;101273.94;;;18.79;100.00
4449;BME280;2237;51.870;6.160;2023-07-20T02:38:11;101277.28;;;18.82;100.00
4449;BME280;2237;51.870;6.160;2023-07-20T02:40:37;101287.28;;;18.76;100.00
4449;BME280;2237;51.870;6.160;2023-07-20T02:43:06;101283.78;;;18.75;100.00
4449;BME280;2237;51.870;6.160;2023-07-20T02:45:32;101287.44;;;18.73;100.00
4449;BME280;2237;51.870;6.160;2023-07-20T02:47:59;101281.22;;;18.74;100.00
4449;BME280;2237;51.870;6.160;2023-07-20T02:50:25;101277.03;;;18.70;100.00
4449;BME280;2237;51.870;6.160;2023-07-20T02:52:52;101279.44;;;18.74;100.00
4449;BME280;2237;51.870;6.160;2023-07-20T02:55:18;101288.84;;;18.80;100.00
4449;BME280;2237;51.870;6.160;2023-07-20T02:57:45;101279.06;;;18.82;100.00
4449;BME280;2237;51.870;6.160;2023-07-20T03:00:12;101279.94;;;18.82;100.00
4449;BME280;2237;51.870;6.160;2023-07-20T03:02:41;101283.56;;;18.80;100.00
4449;BME280;2237;51.870;6.160;2023-07-20T03:05:08;101289.91;;;18.76;100.00
4449;BME280;2237;51.870;6.160;2023-07-20T03:07:35;101283.41;;;18.66;100.00
4449;BME280;2237;51.870;6.160;2023-07-20T03:10:02;101284.03;;;18.52;100.00
4449;BME280;2237;51.870;6.160;2023-07-20T03:12:29;101290.97;;;18.54;100.00
4449;BME280;2237;51.870;6.160;2023-07-20T03:14:55;101279.25;;;18.41;100.00
4449;BME280;2237;51.870;6.160;2023-07-20T03:17:23;101295.44;;;18.52;100.00
4449;BME280;2237;51.870;6.160;2023-07-20T03:19:50;101296.66;;;18.45;100.00
4449;BME280;2237;51.870;6.160;2023-07-20T03:22:16;101298.56;;;18.42;100.00
4449;BME280;2237;51.870;6.160;2023-07-20T03:24:42;101298.75;;;18.37;100.00
4449;BME280;2237;51.870;6.160;2023-07-20T03:27:09;101304.00;;;18.39;100.00
4449;BME280;2237;51.870;6.160;2023-07-20T03:29:35;101305.03;;;18.35;100.00
4449;BME280;2237;51.870;6.160;2023-07-20T03:32:02;101309.47;;;18.34;100.00
4449;BME280;2237;51.870;6.160;2023-07-20T03:34:29;101315.03;;;18.28;100.00
4449;BME280;2237;51.870;6.160;2023-07-20T03:36:55;101321.75;;;18.17;100.00
4449;BME280;2237;51.870;6.160;2023-07-20T03:39:22;101314.03;;;18.12;100.00
4449;BME280;2237;51.870;6.160;2023-07-20T03:41:48;101319.94;;;18.17;100.00
4449;BME280;2237;51.870;6.160;2023-07-20T03:44:15;101309.38;;;18.17;100.00
4449;BME280;2237;51.870;6.160;2023-07-20T03:46:41;101312.84;;;18.19;100.00
4449;BME280;2237;51.870;6.160;2023-07-20T03:49:08;101323.28;;;18.21;100.00
4449;BME280;2237;51.870;6.160;2023-07-20T03:51:35;101325.06;;;18.20;100.00
4449;BME280;2237;51.870;6.160;2023-07-20T03:54:02;101322.44;;;18.20;100.00
4449;BME280;2237;51.870;6.160;2023-07-20T03:56:28;101319.66;;;18.23;100.00
4449;BME280;2237;51.870;6.160;2023-07-20T03:58:55;101316.31;;;18.20;100.00
4449;BME280;2237;51.870;6.160;2023-07-20T04:01:21;101321.75;;;18.17;100.00
4449;BME280;2237;51.870;6.160;2023-07-20T04:03:48;101321.78;;;18.15;100.00
4449;BME280;2237;51.870;6.160;2023-07-20T04:06:15;101328.69;;;18.18;100.00
4449;BME280;2237;51.870;6.160;2023-07-20T04:08:44;101331.69;;;18.10;100.00
4449;BME280;2237;51.870;6.160;2023-07-20T04:11:10;101331.09;;;18.03;100.00
4449;BME280;2237;51.870;6.160;2023-07-20T04:13:37;101332.09;;;18.01;100.00
4449;BME280;2237;51.870;6.160;2023-07-20T04:16:03;101334.25;;;17.93;100.00
4449;BME280;2237;51.870;6.160;2023-07-20T04:18:30;101333.88;;;18.00;100.00
4449;BME280;2237;51.870;6.160;2023-07-20T04:20:56;101336.97;;;18.10;100.00
4449;BME280;2237;51.870;6.160;2023-07-20T04:23:23;101330.63;;;18.14;100.00
4449;BME280;2237;51.870;6.160;2023-07-20T04:25:49;101338.66;;;18.11;100.00
4449;BME280;2237;51.870;6.160;2023-07-20T04:28:15;101330.84;;;18.10;100.00
4449;BME280;2237;51.870;6.160;2023-07-20T04:30:42;101336.09;;;18.10;100.00
4449;BME280;2237;51.870;6.160;2023-07-20T04:33:11;101329.97;;;18.09;100.00
4449;BME280;2237;51.870;6.160;2023-07-20T04:35:54;101333.59;;;18.06;100.00
4449;BME280;2237;51.870;6.160;2023-07-20T04:38:21;101338.84;;;18.08;100.00
4449;BME280;2237;51.870;6.160;2023-07-20T04:40:49;101343.66;;;17.98;100.00
4449;BME280;2237;51.870;6.160;2023-07-20T04:43:17;101343.84;;;17.94;100.00
4449;BME280;2237;51.870;6.160;2023-07-20T04:45:44;101347.81;;;17.84;100.00
4449;BME280;2237;51.870;6.160;2023-07-20T04:48:12;101350.72;;;17.78;100.00
4449;BME280;2237;51.870;6.160;2023-07-20T04:50:43;101356.44;;;17.87;100.00
4449;BME280;2237;51.870;6.160;2023-07-20T04:53:12;101351.59;;;17.97;100.00
4449;BME280;2237;51.870;6.160;2023-07-20T04:55:39;101352.28;;;18.02;100.00
4449;BME280;2237;51.870;6.160;2023-07-20T04:58:06;101352.00;;;17.88;100.00
4449;BME280;2237;51.870;6.160;2023-07-20T05:00:34;101362.84;;;17.82;100.00
4449;BME280;2237;51.870;6.160;2023-07-20T05:03:00;101359.88;;;17.89;100.00
4449;BME280;2237;51.870;6.160;2023-07-20T05:05:27;101353.47;;;17.95;100.00
4449;BME280;2237;51.870;6.160;2023-07-20T05:07:53;101351.03;;;17.90;100.00
4449;BME280;2237;51.870;6.160;2023-07-20T05:10:20;101358.34;;;17.84;100.00
4449;BME280;2237;51.870;6.160;2023-07-20T05:12:47;101359.22;;;17.84;100.00
4449;BME280;2237;51.870;6.160;2023-07-20T05:15:13;101357.28;;;17.88;100.00
4449;BME280;2237;51.870;6.160;2023-07-20T05:17:40;101359.41;;;17.80;100.00
4449;BME280;2237;51.870;6.160;2023-07-20T05:20:07;101365.66;;;17.77;100.00
4449;BME280;2237;51.870;6.160;2023-07-20T05:22:36;101361.97;;;17.81;100.00
4449;BME280;2237;51.870;6.160;2023-07-20T05:25:07;101362.50;;;17.89;100.00
4449;BME280;2237;51.870;6.160;2023-07-20T05:27:38;101360.31;;;17.99;100.00
4449;BME280;2237;51.870;6.160;2023-07-20T05:30:06;101366.91;;;17.89;100.00
4449;BME280;2237;51.870;6.160;2023-07-20T05:32:36;101366.19;;;17.85;100.00
4449;BME280;2237;51.870;6.160;2023-07-20T05:35:02;101372.53;;;17.81;100.00
4449;BME280;2237;51.870;6.160;2023-07-20T05:37:29;101377.09;;;17.96;100.00
4449;BME280;2237;51.870;6.160;2023-07-20T05:39:56;101380.69;;;17.75;100.00
4449;BME280;2237;51.870;6.160;2023-07-20T05:42:23;101375.59;;;17.71;100.00
4449;BME280;2237;51.870;6.160;2023-07-20T05:44:49;101373.78;;;17.93;100.00
4449;BME280;2237;51.870;6.160;2023-07-20T05:47:19;101366.09;;;18.07;100.00
4449;BME280;2237;51.870;6.160;2023-07-20T05:49:45;101374.78;;;18.09;100.00
4449;BME280;2237;51.870;6.160;2023-07-20T05:52:11;101371.59;;;18.21;100.00
4449;BME280;2237;51.870;6.160;2023-07-20T05:54:38;101378.97;;;18.33;100.00
4449;BME280;2237;51.870;6.160;2023-07-20T05:57:05;101382.59;;;18.31;100.00
4449;BME280;2237;51.870;6.160;2023-07-20T05:59:32;101373.78;;;18.12;100.00
4449;BME280;2237;51.870;6.160;2023-07-20T06:01:58;101383.91;;;18.02;100.00
4449;BME280;2237;51.870;6.160;2023-07-20T06:04:25;101384.56;;;18.07;100.00
4449;BME280;2237;51.870;6.160;2023-07-20T06:06:51;101382.28;;;18.18;100.00
4449;BME280;2237;51.870;6.160;2023-07-20T06:09:17;101390.16;;;18.20;100.00
4449;BME280;2237;51.870;6.160;2023-07-20T06:11:44;101394.59;;;18.18;100.00
4449;BME280;2237;51.870;6.160;2023-07-20T06:14:10;101387.44;;;18.21;100.00
4449;BME280;2237;51.870;6.160;2023-07-20T06:16:37;101389.56;;;18.32;100.00
4449;BME280;2237;51.870;6.160;2023-07-20T06:19:03;101396.00;;;18.45;100.00
4449;BME280;2237;51.870;6.160;2023-07-20T06:21:30;101395.63;;;18.54;100.00
4449;BME280;2237;51.870;6.160;2023-07-20T06:23:56;101401.41;;;18.62;100.00
4449;BME280;2237;51.870;6.160;2023-07-20T06:26:23;101396.03;;;18.63;100.00
4449;BME280;2237;51.870;6.160;2023-07-20T06:28:50;101399.47;;;18.66;100.00
4449;BME280;2237;51.870;6.160;2023-07-20T06:31:16;101394.34;;;18.63;100.00
4449;BME280;2237;51.870;6.160;2023-07-20T06:33:43;101408.59;;;18.77;100.00
4449;BME280;2237;51.870;6.160;2023-07-20T06:36:10;101402.03;;;18.86;100.00
4449;BME280;2237;51.870;6.160;2023-07-20T06:38:36;101402.03;;;18.86;100.00
4449;BME280;2237;51.870;6.160;2023-07-20T06:41:03;101401.03;;;18.88;100.00
4449;BME280;2237;51.870;6.160;2023-07-20T06:43:32;101396.31;;;18.95;100.00
4449;BME280;2237;51.870;6.160;2023-07-20T06:46:02;101390.53;;;18.87;100.00
4449;BME280;2237;51.870;6.160;2023-07-20T06:48:28;101397.25;;;18.94;100.00
4449;BME280;2237;51.870;6.160;2023-07-20T06:50:55;101394.47;;;18.97;100.00
4449;BME280;2237;51.870;6.160;2023-07-20T06:53:21;101394.03;;;19.06;100.00
4449;BME280;2237;51.870;6.160;2023-07-20T06:55:47;101390.53;;;19.05;100.00
4449;BME280;2237;51.870;6.160;2023-07-20T06:58:14;101390.44;;;19.07;100.00
4449;BME280;2237;51.870;6.160;2023-07-20T07:00:41;101403.69;;;19.24;100.00
4449;BME280;2237;51.870;6.160;2023-07-20T07:03:08;101401.38;;;19.35;100.00
4449;BME280;2237;51.870;6.160;2023-07-20T07:05:36;101404.38;;;19.46;100.00
4449;BME280;2237;51.870;6.160;2023-07-20T07:08:07;101407.94;;;19.45;100.00
4449;BME280;2237;51.870;6.160;2023-07-20T07:10:35;101408.56;;;19.50;100.00
4449;BME280;2237;51.870;6.160;2023-07-20T07:13:02;101403.25;;;19.50;100.00
4449;BME280;2237;51.870;6.160;2023-07-20T07:15:31;101418.28;;;19.50;100.00
4449;BME280;2237;51.870;6.160;2023-07-20T07:17:58;101410.53;;;19.64;100.00
4449;BME280;2237;51.870;6.160;2023-07-20T07:20:26;101407.31;;;19.74;100.00
4449;BME280;2237;51.870;6.160;2023-07-20T07:22:53;101412.63;;;19.74;100.00
4449;BME280;2237;51.870;6.160;2023-07-20T07:25:19;101415.81;;;19.81;100.00
4449;BME280;2237;51.870;6.160;2023-07-20T07:27:49;101418.50;;;19.97;100.00
4449;BME280;2237;51.870;6.160;2023-07-20T07:30:16;101415.66;;;19.67;100.00
4449;BME280;2237;51.870;6.160;2023-07-20T07:32:42;101416.56;;;19.30;100.00
4449;BME280;2237;51.870;6.160;2023-07-20T07:35:09;101416.00;;;19.42;100.00
4449;BME280;2237;51.870;6.160;2023-07-20T07:37:36;101419.63;;;19.58;100.00
4449;BME280;2237;51.870;6.160;2023-07-20T07:40:22;101419.19;;;20.00;100.00
4449;BME280;2237;51.870;6.160;2023-07-20T07:42:49;101416.78;;;20.13;100.00
4449;BME280;2237;51.870;6.160;2023-07-20T07:45:15;101423.47;;;20.03;100.00
4449;BME280;2237;51.870;6.160;2023-07-20T07:47:42;101432.22;;;19.88;100.00
4449;BME280;2237;51.870;6.160;2023-07-20T07:50:09;101430.97;;;19.78;100.00
4449;BME280;2237;51.870;6.160;2023-07-20T07:52:36;101435.00;;;20.02;100.00
4449;BME280;2237;51.870;6.160;2023-07-20T07:55:04;101432.31;;;20.36;100.00
4449;BME280;2237;51.870;6.160;2023-07-20T07:57:30;101427.25;;;20.64;100.00
4449;BME280;2237;51.870;6.160;2023-07-20T07:59:57;101428.91;;;20.98;100.00
4449;BME280;2237;51.870;6.160;2023-07-20T08:02:23;101432.66;;;21.25;96.63
4449;BME280;2237;51.870;6.160;2023-07-20T08:04:49;101425.31;;;21.30;94.39
4449;BME280;2237;51.870;6.160;2023-07-20T08:07:18;101431.28;;;21.34;94.18
4449;BME280;2237;51.870;6.160;2023-07-20T08:09:44;101439.66;;;21.42;94.80
4449;BME280;2237;51.870;6.160;2023-07-20T08:12:11;101429.03;;;21.42;94.44
4449;BME280;2237;51.870;6.160;2023-07-20T08:14:39;101435.66;;;21.35;90.69
4449;BME280;2237;51.870;6.160;2023-07-20T08:17:06;101438.13;;;21.07;91.33
4449;BME280;2237;51.870;6.160;2023-07-20T08:19:32;101438.13;;;21.22;93.09
4449;BME280;2237;51.870;6.160;2023-07-20T08:21:59;101444.94;;;21.42;86.60
4449;BME280;2237;51.870;6.160;2023-07-20T08:24:25;101443.25;;;21.41;87.61
4449;BME280;2237;51.870;6.160;2023-07-20T08:26:52;101438.88;;;21.40;87.25
4449;BME280;2237;51.870;6.160;2023-07-20T08:29:18;101447.88;;;21.06;90.26
4449;BME280;2237;51.870;6.160;2023-07-20T08:31:45;101451.91;;;21.13;90.24
4449;BME280;2237;51.870;6.160;2023-07-20T08:34:12;101447.19;;;21.03;88.77
4449;BME280;2237;51.870;6.160;2023-07-20T08:36:55;101454.19;;;20.88;90.78
4449;BME280;2237;51.870;6.160;2023-07-20T08:39:22;101449.97;;;20.84;91.30
4449;BME280;2237;51.870;6.160;2023-07-20T08:41:49;101457.09;;;20.83;91.48
4449;BME280;2237;51.870;6.160;2023-07-20T08:44:16;101455.63;;;20.94;90.91
4449;BME280;2237;51.870;6.160;2023-07-20T08:46:43;101450.88;;;21.16;90.45
4449;BME280;2237;51.870;6.160;2023-07-20T08:49:11;101455.25;;;21.32;89.42
4449;BME280;2237;51.870;6.160;2023-07-20T08:51:38;101460.88;;;21.26;81.85
4449;BME280;2237;51.870;6.160;2023-07-20T08:54:06;101462.09;;;21.21;77.44
4449;BME280;2237;51.870;6.160;2023-07-20T08:56:33;101451.91;;;21.29;77.89
4449;BME280;2237;51.870;6.160;2023-07-20T08:59:00;101444.78;;;20.82;81.95
4449;BME280;2237;51.870;6.160;2023-07-20T09:01:28;101455.28;;;21.00;84.14
4449;BME280;2237;51.870;6.160;2023-07-20T09:03:56;101455.25;;;21.17;79.91
4449;BME280;2237;51.870;6.160;2023-07-20T09:06:23;101453.69;;;21.44;77.71
4449;BME280;2237;51.870;6.160;2023-07-20T09:08:50;101455.28;;;21.92;77.76
4449;BME280;2237;51.870;6.160;2023-07-20T09:11:17;101451.44;;;22.12;78.04
4449;BME280;2237;51.870;6.160;2023-07-20T09:13:43;101450.50;;;22.27;78.69
4449;BME280;2237;51.870;6.160;2023-07-20T09:16:13;101446.41;;;22.07;77.93
4449;BME280;2237;51.870;6.160;2023-07-20T09:18:41;101441.69;;;22.26;79.92
4449;BME280;2237;51.870;6.160;2023-07-20T09:21:08;101441.97;;;22.08;82.51
4449;BME280;2237;51.870;6.160;2023-07-20T09:23:36;101442.47;;;21.84;81.52
4449;BME280;2237;51.870;6.160;2023-07-20T09:26:13;101443.66;;;21.49;79.44
4449;BME280;2237;51.870;6.160;2023-07-20T09:28:57;101448.66;;;21.08;79.27
4449;BME280;2237;51.870;6.160;2023-07-20T09:31:23;101444.72;;;21.31;80.91
4449;BME280;2237;51.870;6.160;2023-07-20T09:33:52;101445.09;;;21.55;78.22
4449;BME280;2237;51.870;6.160;2023-07-20T09:36:22;101440.97;;;21.94;75.54
4449;BME280;2237;51.870;6.160;2023-07-20T09:39:08;101444.09;;;22.31;66.11
4449;BME280;2237;51.870;6.160;2023-07-20T09:41:41;101435.16;;;22.32;62.67
4449;BME280;2237;51.870;6.160;2023-07-20T09:44:11;101433.25;;;22.62;62.76
4449;BME280;2237;51.870;6.160;2023-07-20T09:46:47;101441.25;;;22.76;62.96
4449;BME280;2237;51.870;6.160;2023-07-20T09:49:17;101439.53;;;23.16;62.91
4449;BME280;2237;51.870;6.160;2023-07-20T09:51:47;101438.59;;;23.17;60.06
4449;BME280;2237;51.870;6.160;2023-07-20T09:54:14;101436.88;;;23.16;58.98
4449;BME280;2237;51.870;6.160;2023-07-20T09:56:42;101437.16;;;23.26;59.78
4449;BME280;2237;51.870;6.160;2023-07-20T09:59:09;101432.16;;;23.34;58.50
4449;BME280;2237;51.870;6.160;2023-07-20T10:01:36;101426.78;;;23.35;58.44
4449;BME280;2237;51.870;6.160;2023-07-20T10:04:09;101425.84;;;23.22;57.58
4449;BME280;2237;51.870;6.160;2023-07-20T10:06:42;101429.56;;;23.20;57.79
4449;BME280;2237;51.870;6.160;2023-07-20T10:09:10;101415.44;;;23.46;56.29
4449;BME280;2237;51.870;6.160;2023-07-20T10:11:42;101419.94;;;23.58;55.70
4449;BME280;2237;51.870;6.160;2023-07-20T10:14:11;101413.13;;;23.54;53.47
4449;BME280;2237;51.870;6.160;2023-07-20T10:16:43;101421.09;;;23.54;53.04
4449;BME280;2237;51.870;6.160;2023-07-20T10:19:42;101420.31;;;23.79;53.69
4449;BME280;2237;51.870;6.160;2023-07-20T10:22:19;101415.44;;;23.85;52.66
4449;BME280;2237;51.870;6.160;2023-07-20T10:24:46;101422.03;;;23.80;51.55
4449;BME280;2237;51.870;6.160;2023-07-20T10:27:14;101410.31;;;23.82;52.58
4449;BME280;2237;51.870;6.160;2023-07-20T10:29:41;101421.69;;;23.72;50.56
4449;BME280;2237;51.870;6.160;2023-07-20T10:32:09;101423.72;;;23.68;52.42
4449;BME280;2237;51.870;6.160;2023-07-20T10:34:36;101411.59;;;23.89;53.15
4449;BME280;2237;51.870;6.160;2023-07-20T10:37:03;101425.03;;;23.88;51.17
4449;BME280;2237;51.870;6.160;2023-07-20T10:39:33;101413.22;;;24.04;50.63
4449;BME280;2237;51.870;6.160;2023-07-20T10:42:06;101399.69;;;24.07;49.94
4449;BME280;2237;51.870;6.160;2023-07-20T10:44:36;101400.56;;;24.21;50.86
4449;BME280;2237;51.870;6.160;2023-07-20T10:47:08;101394.28;;;24.34;48.79
4449;BME280;2237;51.870;6.160;2023-07-20T10:49:35;101405.38;;;24.15;47.50
4449;BME280;2237;51.870;6.160;2023-07-20T10:52:18;101395.94;;;23.59;46.63
4449;BME280;2237;51.870;6.160;2023-07-20T10:54:48;101393.59;;;23.68;47.98
4449;BME280;2237;51.870;6.160;2023-07-20T10:57:29;101393.19;;;23.74;48.19
4449;BME280;2237;51.870;6.160;2023-07-20T11:00:13;101393.34;;;24.23;47.30
4449;BME280;2237;51.870;6.160;2023-07-20T11:02:47;101400.56;;;24.33;46.80
4449;BME280;2237;51.870;6.160;2023-07-20T11:05:33;101399.38;;;24.12;47.47
4449;BME280;2237;51.870;6.160;2023-07-20T11:08:04;101400.38;;;24.11;48.98
4449;BME280;2237;51.870;6.160;2023-07-20T11:10:31;101396.25;;;24.56;47.96
4449;BME280;2237;51.870;6.160;2023-07-20T11:13:20;101393.66;;;24.92;46.95
4449;BME280;2237;51.870;6.160;2023-07-20T11:16:01;101395.31;;;24.57;45.90
4449;BME280;2237;51.870;6.160;2023-07-20T11:18:29;101398.00;;;24.93;47.21
4449;BME280;2237;51.870;6.160;2023-07-20T11:20:57;101391.28;;;25.24;48.12
4449;BME280;2237;51.870;6.160;2023-07-20T11:23:24;101387.97;;;25.20;45.40
4449;BME280;2237;51.870;6.160;2023-07-20T11:25:50;101379.94;;;25.57;45.74
4449;BME280;2237;51.870;6.160;2023-07-20T11:28:17;101377.34;;;25.32;46.61
4449;BME280;2237;51.870;6.160;2023-07-20T11:30:43;101383.03;;;25.27;46.19
4449;BME280;2237;51.870;6.160;2023-07-20T11:33:10;101377.13;;;25.11;46.53
4449;BME280;2237;51.870;6.160;2023-07-20T11:35:44;101383.78;;;25.29;46.56
4449;BME280;2237;51.870;6.160;2023-07-20T11:38:12;101377.31;;;24.97;46.48
4449;BME280;2237;51.870;6.160;2023-07-20T11:40:43;101378.97;;;25.10;46.46
4449;BME280;2237;51.870;6.160;2023-07-20T11:43:11;101378.03;;;25.22;47.17
4449;BME280;2237;51.870;6.160;2023-07-20T11:45:41;101372.97;;;24.96;46.73
4449;BME280;2237;51.870;6.160;2023-07-20T11:48:14;101377.22;;;24.98;47.67
4449;BME280;2237;51.870;6.160;2023-07-20T11:50:40;101372.72;;;25.22;47.83
4449;BME280;2237;51.870;6.160;2023-07-20T11:53:07;101362.94;;;25.34;46.86
4449;BME280;2237;51.870;6.160;2023-07-20T11:55:34;101361.09;;;25.23;46.79
4449;BME280;2237;51.870;6.160;2023-07-20T11:58:08;101361.22;;;25.22;46.26
4449;BME280;2237;51.870;6.160;2023-07-20T12:00:36;101358.25;;;24.90;46.13
4449;BME280;2237;51.870;6.160;2023-07-20T12:03:05;101367.00;;;24.92;48.24
4449;BME280;2237;51.870;6.160;2023-07-20T12:05:38;101368.25;;;24.63;47.58
4449;BME280;2237;51.870;6.160;2023-07-20T12:08:24;101363.47;;;24.79;48.75
4449;BME280;2237;51.870;6.160;2023-07-20T12:10:50;101355.81;;;25.11;48.44
4449;BME280;2237;51.870;6.160;2023-07-20T12:13:17;101351.00;;;25.86;47.13
4449;BME280;2237;51.870;6.160;2023-07-20T12:15:43;101351.09;;;25.84;46.16
4449;BME280;2237;51.870;6.160;2023-07-20T12:18:10;101353.53;;;25.17;44.73
4449;BME280;2237;51.870;6.160;2023-07-20T12:20:37;101355.34;;;24.69;45.21
4449;BME280;2237;51.870;6.160;2023-07-20T12:23:08;101362.00;;;25.11;44.29
4449;BME280;2237;51.870;6.160;2023-07-20T12:25:39;101353.19;;;24.87;46.42
4449;BME280;2237;51.870;6.160;2023-07-20T12:28:14;101358.09;;;24.68;47.19
4449;BME280;2237;51.870;6.160;2023-07-20T12:30:42;101353.50;;;25.06;46.55
4449;BME280;2237;51.870;6.160;2023-07-20T12:33:10;101349.66;;;24.87;47.38
4449;BME280;2237;51.870;6.160;2023-07-20T12:35:36;101355.44;;;24.68;47.33
4449;BME280;2237;51.870;6.160;2023-07-20T12:38:03;101350.00;;;24.69;46.45
4449;BME280;2237;51.870;6.160;2023-07-20T12:40:29;101352.19;;;24.88;45.80
4449;BME280;2237;51.870;6.160;2023-07-20T12:42:57;101346.75;;;24.90;46.17
4449;BME280;2237;51.870;6.160;2023-07-20T12:45:23;101351.34;;;24.88;46.78
4449;BME280;2237;51.870;6.160;2023-07-20T12:47:49;101347.97;;;25.44;45.75
4449;BME280;2237;51.870;6.160;2023-07-20T12:50:16;101343.56;;;25.67;44.90
4449;BME280;2237;51.870;6.160;2023-07-20T12:52:43;101343.34;;;25.92;44.63
4449;BME280;2237;51.870;6.160;2023-07-20T12:55:10;101352.34;;;25.80;44.71
4449;BME280;2237;51.870;6.160;2023-07-20T12:57:37;101339.94;;;25.90;44.55
4449;BME280;2237;51.870;6.160;2023-07-20T13:00:06;101344.50;;;25.66;43.37
4449;BME280;2237;51.870;6.160;2023-07-20T13:02:34;101337.75;;;25.95;42.78
4449;BME280;2237;51.870;6.160;2023-07-20T13:05:02;101339.03;;;26.24;42.86
4449;BME280;2237;51.870;6.160;2023-07-20T13:07:31;101340.47;;;26.39;43.02
4449;BME280;2237;51.870;6.160;2023-07-20T13:10:02;101335.09;;;26.62;42.97
4449;BME280;2237;51.870;6.160;2023-07-20T13:12:31;101344.47;;;26.45;41.44
4449;BME280;2237;51.870;6.160;2023-07-20T13:14:58;101336.72;;;26.31;42.21